Coimbatore Airport
VOCB : now visible

Airfield :











YOU CAN JOIN US ON...

 
LOGIN :

Register | Disclaimer

   EN    FR    IT 

 









Legend :    VFR   Marginal VFR   IFR   Intensive IFR   Very Intensive IFR
Visi :
Ceiling :
>= 8 km
>= 3000ft
5 to 8 km
1000 to 3000 ft
1500m to 5 km
500 to 1000 ft
800 to 1500m
200 to 500 ft
< 800m
< 200 ft
Symbols :   Thunderstorms  Fog  Heavy snow  Heavy precipitations  Wind > 20 kt






- Airport Elevation : 1324 ft
- IATA code : CJB


VOCB - Coimbatore

CURRENT METAR :
  • 151730Z VRB02KT 4000 BR SCT015 24/20 Q1016 NOSIG

EXPIRED METARs :
  • 151700Z VRB02KT 4000 BR SCT015 24/20 Q1016 NOSIG
  • 151630Z VRB02KT 4000 BR FEW012 SCT080 24/20 Q1016 NOSIG
  • 151600Z 09004KT 4000 BR FEW012 SCT080 24/20 Q1016 NOSIG
  • 151530Z VRB02KT 4000 BR FEW012 SCT080 24/20 Q1015 NOSIG
  • 151500Z 00000KT 4000 BR FEW012 BKN080 24/20 Q1015 NOSIG

TAF TAF VOCB
Valid from the 15 at 12:00 until the 16 at 18:00 UTC


151100Z 1512/1618 01005KT 5000 BR SCT018 SCT090
TEMPO 1514/1518 4000 -TSRA/RA SCT015 FEW025TCU/CB BKN080
BECMG 1518/1519 4000 BR
TEMPO 1521/1603 3000 BR
BECMG 1604/1605 07010KT 5000 BR
BECMG 1607/1608 6000
BECMG 1613/1614 5000 HZ
BECMG 1616/1617 4000 BR



MET'MAP, your aeronautical weather chart ! - Copyright ORBIFLY December 2007 - Disclaimer

ORBIFLY MET'MAP TEAM :

Programming & Development : Alexandra Zaïnal
Concept & original design : Baudouin d'Aumeries
Assistance for programming : Marc-Olivier Méhu
Technical & hardware support : Manuel Goepfert

Contact : metmap@orbifly.com




SOURCES & CREDITS :

   NOAA       Earth
Advisory